Terminal Aerodrome Forecast
Issued by NWS Spokane, WA

Home | Current Version | Previous Version | Text Only | Print | Product List | Glossary On
Versions: 1 2 3 4 5 6 7 8 9 10 11 12 13 14 15 16 17 18 19 20 21 22 23 24 25 26
000
FTUS46 KOTX 222339
TAFLWS
TAF
KLWS 222339Z 2300/2324 VRB04KT P6SM VCSH SCT060 BKN120
     FM230400 14003KT P6SM BKN090
     FM230800 10003KT P6SM SCT070 BKN120
     FM232200 31004KT P6SM SCT070 BKN120=

USA.gov is the U.S. government's official web portal to all federal, state and local government web resources and services.